Time;durP1;ratioP1;P1;durP2;ratioP2;P2;SDS_P1;SDS_P2;PMS_P1;PMS_P2;Temp;Humidity;BMP_temperature;BMP_pressure;BME280_temperature;BME280_humidity;BME280_pressure;Samples;Min_cycle;Max_cycle;Signal;HPM_P1;HPM_P2
2023/07/25 07:11:25;;;;;;;22.85;4.63;;;;;;;22.86;88.88;99383.56;6185232;22;1470931;-91
2023/07/25 07:14:20;;;;;;;26.20;6.88;;;;;;;22.93;89.88;99361.22;6261057;23;20031;-90
2023/07/25 07:17:15;;;;;;;26.13;6.65;;;;;;;22.93;91.60;99400.03;6248888;23;20023;-90
2023/07/25 07:20:08;;;;;;;31.58;6.32;;;;;;;22.97;89.05;99429.25;6237506;23;20027;-90
2023/07/25 07:23:00;;;;;;;41.30;7.35;;;;;;;23.03;90.05;99438.63;6236946;23;20019;-90
2023/07/25 07:25:53;;;;;;;38.15;7.00;;;;;;;23.03;90.79;99449.72;6236848;23;20019;-91
2023/07/25 07:28:45;;;;;;;32.83;6.18;;;;;;;23.05;90.53;99449.28;6239309;23;20019;-90
2023/07/25 07:31:40;;;;;;;35.60;7.15;;;;;;;23.08;90.92;99451.19;6237338;23;20042;-89
2023/07/25 07:34:34;;;;;;;36.40;6.78;;;;;;;23.15;93.66;99400.34;6237897;23;20015;-88
2023/07/25 07:37:28;;;;;;;21.17;4.90;;;;;;;23.06;93.39;99370.41;6263943;23;20030;-86
2023/07/25 07:40:22;;;;;;;26.02;5.25;;;;;;;23.08;89.93;99415.13;6256736;23;20237;-87
2023/07/25 07:43:18;;;;;;;16.48;4.38;;;;;;;23.13;89.32;99434.03;6259131;23;20362;-86
2023/07/25 07:46:13;;;;;;;20.02;4.22;;;;;;;23.18;90.30;99438.28;6262618;23;20019;-87
2023/07/25 07:49:03;;;;;;;29.13;3.65;;;;;;;23.15;89.36;99453.81;6257893;23;20026;-90
2023/07/25 07:51:56;;;;;;;17.05;4.53;;;;;;;23.21;89.05;99438.19;6258247;23;20363;-89
2023/07/25 07:54:45;;;;;;;8.43;2.95;;;;;;;23.23;90.28;99404.50;6237113;23;20034;-90
2023/07/25 07:57:39;;;;;;;9.93;2.90;;;;;;;23.21;91.82;99395.84;6237625;23;20022;-89
2023/07/25 08:00:34;;;;;;;9.27;2.88;;;;;;;23.20;91.78;99392.28;6257769;23;20030;-89
2023/07/25 08:03:26;;;;;;;12.77;2.60;;;;;;;23.15;89.32;99384.47;6262515;23;20030;-89
2023/07/25 08:06:18;;;;;;;7.95;2.97;;;;;;;23.21;89.60;99396.59;6259901;23;20106;-90
2023/07/25 08:09:10;;;;;;;6.13;3.25;;;;;;;23.15;91.77;99406.66;6239198;23;20074;-89
2023/07/25 08:12:05;;;;;;;6.57;2.13;;;;;;;23.06;93.63;99386.28;6239384;23;20018;-89
2023/07/25 08:14:57;;;;;;;6.55;2.20;;;;;;;22.99;91.38;99473.97;6237925;23;20038;-90
2023/07/25 08:17:52;;;;;;;5.03;2.13;;;;;;;23.04;88.15;99578.06;6241102;23;20030;-88
2023/07/25 08:20:44;;;;;;;3.75;1.77;;;;;;;23.12;86.43;99612.75;6241315;23;20022;-89
2023/07/25 08:23:38;;;;;;;4.38;1.92;;;;;;;23.25;84.50;99599.03;6239578;23;20018;-90
2023/07/25 08:26:33;;;;;;;9.63;2.58;;;;;;;23.32;87.51;99532.28;6260460;23;20019;-88
2023/07/25 08:37:49;;;;;;;13.85;3.88;;;;;;;23.16;87.82;99568.31;6263692;23;20014;-90
2023/07/25 08:40:43;;;;;;;19.25;3.75;;;;;;;23.18;86.38;99588.06;6239927;23;20022;-90
2023/07/25 08:43:42;;;;;;;27.40;3.75;;;;;;;23.25;85.12;99576.84;6237875;23;20025;-91
2023/07/25 08:46:37;;;;;;;17.55;4.43;;;;;;;23.27;85.66;99550.22;6238844;23;20027;-91
2023/07/25 08:49:36;;;;;;;18.40;3.55;;;;;;;23.25;86.29;99544.34;6242419;23;20026;-95
2023/07/25 08:52:33;;;;;;;13.48;3.08;;;;;;;23.20;89.30;99555.94;6246509;23;20022;-94
2023/07/25 08:55:25;;;;;;;8.60;3.15;;;;;;;23.16;89.87;99568.31;6247102;23;20022;-92
2023/07/25 08:58:18;;;;;;;13.02;2.70;;;;;;;23.10;89.24;99558.94;6245670;23;20022;-92
2023/07/25 09:01:13;;;;;;;10.40;2.38;;;;;;;23.11;88.28;99563.28;6242342;23;20648;-92
2023/07/25 09:04:08;;;;;;;10.65;3.42;;;;;;;23.12;88.79;99564.81;6243461;23;20038;-92
2023/07/25 09:07:04;;;;;;;8.60;2.72;;;;;;;23.14;87.44;99573.50;6248395;23;20019;-90
2023/07/25 09:09:56;;;;;;;8.63;2.63;;;;;;;23.13;87.04;99580.25;6247326;23;20492;-90
2023/07/25 09:12:51;;;;;;;7.78;1.70;;;;;;;23.17;87.91;99575.41;6242875;23;20018;-88
2023/07/25 09:15:40;;;;;;;7.13;2.67;;;;;;;23.15;86.23;99572.31;6239980;23;20019;-89
2023/07/25 09:18:35;;;;;;;11.63;2.10;;;;;;;23.19;89.54;99554.38;6239584;23;20019;-89
2023/07/25 09:21:27;;;;;;;7.20;2.03;;;;;;;23.18;88.99;99563.09;6252444;23;20062;-89
2023/07/25 09:24:22;;;;;;;3.92;1.58;;;;;;;23.20;87.47;99560.69;6239557;23;20365;-89
2023/07/25 09:27:22;;;;;;;5.57;2.03;;;;;;;23.29;87.20;99553.34;6260076;23;20022;-89
2023/07/25 09:30:17;;;;;;;4.07;1.80;;;;;;;23.33;88.51;99556.03;6260255;23;20341;-89
2023/07/25 09:33:24;;;;;;;5.68;1.90;;;;;;;23.35;88.91;99546.09;6260924;23;20014;-89
2023/07/25 09:36:18;;;;;;;6.32;1.50;;;;;;;23.39;87.08;99544.03;6239517;23;20019;-88
2023/07/25 09:39:13;;;;;;;3.30;1.27;;;;;;;23.43;88.15;99546.69;6240380;23;20019;-88
2023/07/25 09:42:06;;;;;;;9.60;2.13;;;;;;;23.43;88.79;99543.94;6260209;23;20024;-90
2023/07/25 09:45:01;;;;;;;3.25;1.30;;;;;;;23.45;88.10;99527.66;6261492;23;20038;-89
2023/07/25 09:47:55;;;;;;;3.60;1.42;;;;;;;23.51;88.96;99534.28;6261566;23;20026;-89
2023/07/25 09:50:47;;;;;;;4.07;1.58;;;;;;;23.54;86.07;99524.28;6240078;23;20043;-89
2023/07/25 09:53:40;;;;;;;2.15;1.25;;;;;;;23.60;86.64;99517.81;6240477;23;20015;-89
2023/07/25 09:56:35;;;;;;;3.72;1.23;;;;;;;23.64;86.61;99510.16;6241651;23;20031;-88
2023/07/25 09:59:30;;;;;;;4.57;1.25;;;;;;;23.70;85.71;99507.66;6241171;23;20022;-88
2023/07/25 10:02:19;;;;;;;;;;;;;;;23.76;85.98;99500.38;6261266;23;20018;-89
2023/07/25 10:05:15;;;;;;;2.60;1.27;;;;;;;23.73;86.35;99490.13;6261644;23;19908;-89
2023/07/25 10:08:09;;;;;;;3.30;1.25;;;;;;;23.75;86.47;99485.72;6241686;23;20026;-89
2023/07/25 10:11:04;;;;;;;1.02;0.90;;;;;;;23.80;86.04;99489.94;6242734;23;20353;-89
2023/07/25 10:13:59;;;;;;;3.40;1.10;;;;;;;23.85;84.81;99487.44;6265080;23;20019;-89
2023/07/25 10:16:52;;;;;;;2.17;1.27;;;;;;;23.92;84.36;99483.72;6244080;23;20018;-88
2023/07/25 10:19:55;;;;;;;2.53;1.02;;;;;;;23.98;82.82;99483.94;6243883;23;20489;-89
2023/07/25 10:22:50;;;;;;;1.42;0.65;;;;;;;24.09;82.18;99467.78;6242100;23;20026;-88
2023/07/25 10:25:42;;;;;;;2.47;1.23;;;;;;;24.12;83.15;99476.03;6242178;23;20022;-90
2023/07/25 10:28:36;;;;;;;4.10;1.10;;;;;;;24.47;81.49;99471.53;6241032;23;20023;-83
2023/07/25 10:31:33;;;;;;;;;;;;;;;25.79;71.40;99471.13;6253497;23;20065;-83
2023/07/25 10:34:25;;;;;;;4.55;1.23;;;;;;;26.32;66.71;99466.53;6239846;23;19907;-83
2023/07/25 10:37:28;;;;;;;1.27;0.98;;;;;;;26.87;62.87;99467.72;6242173;23;20018;-83
2023/07/25 10:40:20;;;;;;;1.95;1.25;;;;;;;27.57;60.09;99463.41;6260214;23;20026;-83
2023/07/25 10:43:14;;;;;;;2.38;0.98;;;;;;;27.75;58.07;99471.81;6260006;23;20078;-83
2023/07/25 10:46:10;;;;;;;5.47;0.95;;;;;;;27.85;56.14;99464.22;6260469;23;20022;-83
2023/07/25 10:49:14;;;;;;;2.40;0.90;;;;;;;28.45;53.49;99459.63;6260258;23;20022;-84
2023/07/25 10:52:10;;;;;;;10.02;1.48;;;;;;;29.17;52.86;99455.13;6261025;23;20022;-83
2023/07/25 10:55:09;;;;;;;2.95;1.20;;;;;;;29.77;51.04;99454.22;6260940;23;20019;-84
2023/07/25 10:58:14;;;;;;;1.58;1.17;;;;;;;30.04;49.57;99450.47;6260435;23;20026;-84
2023/07/25 11:01:08;;;;;;;3.05;1.08;;;;;;;31.42;47.23;99445.81;6238921;23;20022;-84
2023/07/25 11:04:26;;;;;;;2.33;1.20;;;;;;;32.60;44.43;99454.47;6237032;23;20019;-83
2023/07/25 11:07:19;;;;;;;1.98;0.90;;;;;;;36.44;36.31;99450.56;6260390;23;20027;-84
2023/07/25 11:10:19;;;;;;;1.75;0.95;;;;;;;39.05;29.88;99451.06;6237908;23;20484;-84
2023/07/25 11:13:13;;;;;;;1.30;0.90;;;;;;;38.67;29.83;99451.09;6237517;23;20071;-84
2023/07/25 11:16:13;;;;;;;2.65;1.00;;;;;;;38.71;28.82;99448.72;6259458;23;20026;-85
2023/07/25 11:19:08;;;;;;;1.48;0.80;;;;;;;39.70;27.35;99450.38;6238410;23;20019;-83
2023/07/25 11:22:00;;;;;;;1.77;0.80;;;;;;;37.26;29.94;99441.97;6257670;23;20022;-84
2023/07/25 11:24:55;;;;;;;1.33;0.63;;;;;;;36.89;31.93;99436.09;6238568;23;20027;-84
2023/07/25 11:27:51;;;;;;;1.17;0.73;;;;;;;36.35;33.83;99430.28;6237904;23;20026;-84
2023/07/25 11:30:47;;;;;;;2.78;1.15;;;;;;;35.43;33.33;99423.13;6254861;23;20019;-83
2023/07/25 11:33:45;;;;;;;1.77;0.80;;;;;;;40.31;27.02;99434.91;6260506;23;20354;-83
2023/07/25 11:36:38;;;;;;;4.18;0.80;;;;;;;41.62;25.33;99426.97;6260224;23;20060;-85
2023/07/25 11:39:32;;;;;;;1.85;1.10;;;;;;;38.25;29.29;99427.16;6264879;23;20018;-82
2023/07/25 11:42:26;;;;;;;1.40;0.90;;;;;;;34.33;36.87;99409.25;6267358;23;20070;-83
2023/07/25 11:45:21;;;;;;;5.45;1.02;;;;;;;32.76;39.48;99400.41;6265460;23;20723;-83
2023/07/25 11:48:13;;;;;;;6.63;1.00;;;;;;;31.28;44.17;99401.69;6266950;23;20022;-83
2023/07/25 11:51:08;;;;;;;1.65;0.95;;;;;;;30.49;45.67;99402.41;6262738;23;20026;-83
2023/07/25 11:53:58;;;;;;;1.25;0.77;;;;;;;29.73;47.75;99395.53;6269910;23;20014;-83
2023/07/25 11:56:50;;;;;;;1.13;0.82;;;;;;;29.27;49.91;99383.03;6269686;23;20026;-83
2023/07/25 11:59:47;;;;;;;1.80;0.90;;;;;;;28.89;50.73;99381.69;6267748;23;20022;-83
2023/07/25 12:02:46;;;;;;;1.13;0.80;;;;;;;28.65;51.91;99368.84;6247921;23;20477;-83
2023/07/25 12:05:41;;;;;;;0.75;0.65;;;;;;;28.16;53.44;99369.06;6269742;23;20022;-82
2023/07/25 12:08:38;;;;;;;1.42;0.95;;;;;;;28.09;54.59;99368.13;6269744;23;20022;-82
2023/07/25 12:11:33;;;;;;;3.58;1.00;;;;;;;28.09;54.63;99361.75;6260151;23;20018;-83
2023/07/25 12:14:22;;;;;;;5.50;1.10;;;;;;;28.05;54.11;99361.91;6244594;23;20457;-82
2023/07/25 12:17:17;;;;;;;2.15;1.00;;;;;;;28.02;54.90;99362.84;6268063;23;20023;-82
2023/07/25 12:20:18;;;;;;;2.03;1.00;;;;;;;27.83;54.67;99358.53;6266901;23;20022;-82
2023/07/25 12:23:13;;;;;;;1.67;0.90;;;;;;;27.53;56.46;99346.22;6268560;23;20022;-82
2023/07/25 12:26:09;;;;;;;5.05;1.17;;;;;;;27.67;56.12;99347.66;6268188;23;20026;-81
2023/07/25 12:29:01;;;;;;;4.18;0.93;;;;;;;27.61;56.01;99344.69;6264576;23;20026;-84
2023/07/25 12:31:51;;;;;;;5.18;1.33;;;;;;;27.66;55.61;99343.28;6255582;23;20023;-84
2023/07/25 12:34:43;;;;;;;3.08;1.40;;;;;;;27.65;54.07;99341.75;6243183;23;20022;-84
2023/07/25 12:37:38;;;;;;;1.65;1.05;;;;;;;27.62;55.06;99337.09;6268777;23;20022;-84
2023/07/25 12:40:33;;;;;;;1.85;0.98;;;;;;;27.60;55.84;99337.56;6269759;23;20023;-84
2023/07/25 12:43:27;;;;;;;3.17;1.20;;;;;;;27.54;56.32;99339.41;6269417;23;20018;-83
2023/07/25 12:46:17;;;;;;;;;;;;;;;27.62;56.18;99345.47;6269707;23;20018;-85
2023/07/25 12:49:06;;;;;;;2.45;1.55;;;;;;;27.62;55.17;99337.09;6265301;23;20334;-86
2023/07/25 12:52:00;;;;;;;3.10;1.38;;;;;;;27.78;54.09;99338.81;6240883;23;20022;-85
2023/07/25 12:54:52;;;;;;;;;;;;;;;27.91;52.72;99334.59;6242628;23;20350;-84
2023/07/25 12:57:47;;;;;;;3.83;2.15;;;;;;;27.88;53.47;99331.97;6258902;23;19908;-86
2023/07/25 13:00:39;;;;;;;;;;;;;;;27.91;53.74;99323.44;6259860;23;20022;-87
2023/07/25 13:03:34;;;;;;;4.10;1.88;;;;;;;27.93;54.43;99315.38;6260005;23;19911;-81
2023/07/25 13:06:28;;;;;;;3.22;1.50;;;;;;;27.83;53.89;99305.44;6260525;23;20030;-84
2023/07/25 13:09:21;;;;;;;4.55;1.30;;;;;;;27.83;54.44;99296.28;6258968;23;20026;-84
2023/07/25 13:12:15;;;;;;;2.97;1.33;;;;;;;27.67;55.01;99291.00;6251382;23;20030;-87
2023/07/25 13:15:05;;;;;;;2.72;1.60;;;;;;;27.73;55.05;99287.13;6238386;23;20022;-85
2023/07/25 13:18:00;;;;;;;21.67;1.92;;;;;;;27.82;55.12;99280.75;6262351;23;20042;-86
2023/07/25 13:20:54;;;;;;;12.52;3.45;;;;;;;27.87;54.86;99289.28;6238885;23;20018;-85
2023/07/25 13:23:46;;;;;;;74.05;12.15;;;;;;;27.79;55.57;99290.81;6262308;23;20023;-83
2023/07/25 13:26:41;;;;;;;289.58;60.45;;;;;;;27.68;57.51;99284.97;6259456;23;20023;-84
2023/07/25 13:29:35;;;;;;;338.33;76.15;;;;;;;27.62;57.58;99284.03;6257926;23;20012;-84
2023/07/25 13:32:30;;;;;;;263.95;56.50;;;;;;;27.64;56.70;99275.94;6257459;23;20023;-82
2023/07/25 13:35:22;;;;;;;173.68;44.15;;;;;;;27.59;57.28;99276.56;6235301;23;20034;-82
2023/07/25 13:38:17;;;;;;;146.93;35.53;;;;;;;27.53;57.58;99278.44;6256944;23;20023;-83
2023/07/25 13:41:09;;;;;;;113.68;30.70;;;;;;;27.55;58.05;99276.72;6253233;23;20020;-83
2023/07/25 13:44:04;;;;;;;80.75;17.83;;;;;;;27.65;56.76;99280.28;6260820;23;20019;-82
2023/07/25 13:46:56;;;;;;;;;;;;;;;27.66;56.65;99284.63;6261986;23;20354;-81
2023/07/25 13:49:50;;;;;;;23.35;7.63;;;;;;;27.55;56.17;99285.09;6260980;23;19908;-83
2023/07/25 13:52:44;;;;;;;67.35;16.75;;;;;;;27.46;57.82;99273.91;6261547;23;20042;-82
2023/07/25 13:55:36;;;;;;;;;;;;;;;27.54;57.50;99277.19;6261955;23;20064;-82
2023/07/25 13:58:31;;;;;;;5.55;2.22;;;;;;;27.69;57.03;99275.31;6260240;23;19908;-83
2023/07/25 14:01:26;;;;;;;11.63;4.60;;;;;;;27.70;55.84;99262.13;6259847;23;20026;-83
2023/07/25 14:04:18;;;;;;;11.05;4.47;;;;;;;27.62;57.02;99264.47;6261413;23;20031;-82
2023/07/25 14:07:13;;;;;;;7.95;3.25;;;;;;;27.61;57.52;99269.28;6260205;23;20019;-83
2023/07/25 14:10:07;;;;;;;13.07;4.13;;;;;;;27.66;58.02;99265.09;6258897;23;20018;-83
2023/07/25 14:12:57;;;;;;;;;;;;;;;27.64;56.56;99256.38;6260653;23;20019;-83
2023/07/25 14:15:48;;;;;;;8.55;3.22;;;;;;;27.68;56.91;99259.81;6261440;23;19908;-83
2023/07/25 14:18:43;;;;;;;8.00;2.80;;;;;;;27.72;57.41;99251.25;6239233;23;20067;-81
2023/07/25 14:21:33;;;;;;;;;;;;;;;27.63;57.60;99252.06;6251978;23;20018;-83
2023/07/25 14:24:22;;;;;;;6.28;2.78;;;;;;;27.70;58.28;99250.94;6261072;23;20250;-81
2023/07/25 14:27:16;;;;;;;8.02;2.55;;;;;;;27.76;57.19;99247.06;6260512;23;20019;-83
2023/07/25 14:30:12;;;;;;;7.40;3.22;;;;;;;27.81;57.00;99245.66;6258377;23;20071;-81
2023/07/25 14:33:06;;;;;;;6.00;2.85;;;;;;;27.75;58.54;99251.09;6258329;23;20018;-81
2023/07/25 14:35:58;;;;;;;;;;;;;;;27.80;57.63;99247.69;6256920;23;20681;-81
2023/07/25 14:38:50;;;;;;;7.40;3.10;;;;;;;27.78;59.13;99249.41;6236580;23;19908;-81
2023/07/25 14:41:45;;;;;;;5.28;3.13;;;;;;;27.80;57.88;99249.69;6249257;23;20027;-83
2023/07/25 14:44:37;;;;;;;6.28;2.90;;;;;;;27.77;56.75;99254.22;6259644;23;20473;-81
2023/07/25 14:47:32;;;;;;;5.10;2.60;;;;;;;27.76;58.53;99263.06;6257513;23;20018;-82
2023/07/25 14:50:24;;;;;;;7.63;3.08;;;;;;;27.79;57.10;99254.50;6255456;23;20022;-82
2023/07/25 14:53:19;;;;;;;6.90;3.13;;;;;;;27.80;58.22;99258.84;6238110;23;20031;-82
2023/07/25 14:56:13;;;;;;;7.82;2.85;;;;;;;27.87;58.71;99252.19;6237955;23;20023;-83
2023/07/25 14:59:08;;;;;;;5.32;2.80;;;;;;;27.85;59.55;99249.06;6260998;23;20018;-84
2023/07/25 15:02:02;;;;;;;5.47;3.00;;;;;;;27.79;60.45;99257.28;6238155;23;20022;-84
2023/07/25 15:04:57;;;;;;;6.55;2.90;;;;;;;27.78;60.94;99255.00;6260089;23;20480;-85
2023/07/25 15:07:52;;;;;;;8.02;3.67;;;;;;;27.68;61.36;99248.63;6260520;23;20018;-83
2023/07/25 15:10:44;;;;;;;9.85;3.55;;;;;;;27.58;61.36;99241.50;6252054;23;20019;-84
2023/07/25 15:13:37;;;;;;;6.00;3.75;;;;;;;27.60;61.95;99244.59;6237337;23;20350;-84
2023/07/25 15:16:31;;;;;;;8.98;3.95;;;;;;;27.61;63.84;99246.94;6260877;23;20019;-85
2023/07/25 15:19:23;;;;;;;;;;;;;;;27.48;64.00;99248.31;6258706;23;20022;-83
2023/07/25 15:22:18;;;;;;;7.20;4.05;;;;;;;27.48;64.73;99248.31;6257858;23;19907;-84
2023/07/25 15:25:12;;;;;;;11.13;5.38;;;;;;;27.36;64.23;99250.00;6257225;23;20019;-84
2023/07/25 15:28:07;;;;;;;9.57;4.38;;;;;;;27.33;65.40;99252.97;6259710;23;20023;-84
2023/07/25 15:30:59;;;;;;;9.20;4.13;;;;;;;27.27;65.23;99250.00;6253782;23;20022;-84
2023/07/25 15:33:54;;;;;;;9.13;5.15;;;;;;;27.17;64.81;99243.63;6258530;23;20465;-83
2023/07/25 15:36:46;;;;;;;;;;;;;;;27.18;64.00;99234.00;6259694;23;20042;-84
2023/07/25 15:39:41;;;;;;;7.78;4.38;;;;;;;27.11;64.67;99225.19;6257577;23;19908;-84
2023/07/25 15:42:30;;;;;;;5.90;4.07;;;;;;;27.10;64.07;99227.19;6258052;23;20026;-84
2023/07/25 15:45:25;;;;;;;11.63;3.78;;;;;;;27.11;64.11;99236.34;6257656;23;20482;-84
2023/07/25 15:48:14;;;;;;;;;;;;;;;27.11;63.06;99234.34;6238683;23;20018;-85
2023/07/25 15:51:06;;;;;;;12.73;5.05;;;;;;;27.11;64.50;99217.59;6249109;23;19912;-84
2023/07/25 15:54:01;;;;;;;10.57;4.63;;;;;;;27.10;63.69;99227.19;6259134;23;20015;-83
2023/07/25 15:56:51;;;;;;;;;;;;;;;27.10;63.28;99230.00;6239173;23;20023;-85
2023/07/25 15:59:45;;;;;;;10.27;4.53;;;;;;;27.13;63.40;99231.84;6258859;23;20333;-85
2023/07/25 16:02:40;;;;;;;8.82;4.13;;;;;;;27.05;63.19;99233.41;6239007;23;20023;-84
2023/07/25 16:05:34;;;;;;;8.38;3.30;;;;;;;27.13;62.60;99226.25;6258571;23;20023;-85
2023/07/25 16:08:26;;;;;;;7.45;4.25;;;;;;;27.10;62.71;99221.63;6260863;23;20026;-83
2023/07/25 16:11:21;;;;;;;6.35;4.68;;;;;;;27.11;63.81;99217.59;6251549;23;20022;-83
2023/07/25 16:14:16;;;;;;;10.60;4.22;;;;;;;27.05;65.35;99210.28;6238221;23;20014;-84
2023/07/25 16:17:03;;;;;;;9.23;4.68;;;;;;;27.03;65.85;99207.94;6238186;23;20026;-85
2023/07/25 16:19:58;;;;;;;9.70;4.20;;;;;;;27.03;65.18;99204.38;6236038;23;20019;-84
2023/07/25 16:22:52;;;;;;;7.28;4.05;;;;;;;27.00;64.93;99194.16;6259307;23;20018;-85
2023/07/25 16:25:44;;;;;;;;;;;;;;;27.03;65.95;99202.38;6261178;23;20026;-87
2023/07/25 16:28:36;;;;;;;11.38;4.75;;;;;;;27.04;65.25;99200.34;6260771;23;19912;-85
2023/07/25 16:31:31;;;;;;;9.15;4.53;;;;;;;27.09;65.35;99203.31;6252921;23;20022;-85
2023/07/25 16:34:26;;;;;;;;;;;;;;;27.07;65.52;99191.81;6261148;23;20019;-83
2023/07/25 16:37:18;;;;;;;9.30;4.63;;;;;;;26.98;65.00;99197.41;6238830;23;19908;-85
2023/07/25 16:40:11;;;;;;;8.35;3.72;;;;;;;26.96;64.41;99191.53;6259996;23;20038;-83
2023/07/25 16:43:04;;;;;;;7.80;4.43;;;;;;;26.96;65.25;99185.16;6260807;23;20026;-83
2023/07/25 16:45:59;;;;;;;5.75;3.90;;;;;;;27.01;66.43;99181.75;6238446;23;20022;-84
2023/07/25 16:48:54;;;;;;;5.40;4.00;;;;;;;26.94;64.19;99165.31;6259899;23;20019;-84
2023/07/25 16:51:46;;;;;;;;;;;;;;;26.97;65.59;99172.78;6252484;23;20022;-85
2023/07/25 16:54:38;;;;;;;6.85;3.60;;;;;;;26.94;66.12;99177.25;6260370;23;20326;-84
2023/07/25 16:57:31;;;;;;;9.23;4.45;;;;;;;26.92;66.63;99173.41;6259001;23;20018;-84
2023/07/25 17:00:25;;;;;;;8.82;4.18;;;;;;;26.91;66.09;99164.25;6257829;23;20546;-83
2023/07/25 17:03:19;;;;;;;7.13;3.50;;;;;;;26.94;65.58;99170.91;6259488;23;20026;-84
2023/07/25 17:06:12;;;;;;;;;;;;;;;26.90;65.52;99178.66;6259284;23;20026;-82
2023/07/25 17:09:06;;;;;;;9.38;4.60;;;;;;;26.87;65.40;99177.53;6258794;23;20331;-82
2023/07/25 17:11:58;;;;;;;6.38;4.20;;;;;;;26.91;64.66;99177.41;6257969;23;20023;-84
2023/07/25 17:14:50;;;;;;;8.63;3.55;;;;;;;26.89;65.69;99185.47;6257846;23;20532;-82
2023/07/25 17:17:42;;;;;;;;;;;;;;;26.87;65.59;99179.59;6262012;23;20485;-83
2023/07/25 17:20:32;;;;;;;10.30;4.30;;;;;;;26.85;66.83;99180.00;6237951;23;19907;-84
2023/07/25 17:23:24;;;;;;;7.20;4.22;;;;;;;26.86;67.14;99189.16;6241016;23;20026;-84
2023/07/25 17:26:18;;;;;;;8.20;4.18;;;;;;;26.86;67.00;99189.16;6261728;23;20026;-86
2023/07/25 17:29:14;;;;;;;8.85;4.00;;;;;;;26.86;67.50;99187.16;6260817;23;20022;-84
2023/07/25 17:32:07;;;;;;;5.03;3.22;;;;;;;26.87;66.13;99188.72;6259146;23;20022;-83
2023/07/25 17:34:59;;;;;;;11.75;4.13;;;;;;;26.89;66.42;99191.03;6260164;23;20062;-84
2023/07/25 17:37:52;;;;;;;10.20;3.70;;;;;;;26.87;66.47;99188.72;6260220;23;20023;-83
2023/07/25 17:40:47;;;;;;;16.45;4.50;;;;;;;26.87;65.44;99185.91;6259360;23;20382;-83
2023/07/25 17:43:39;;;;;;;5.95;3.90;;;;;;;26.86;65.32;99175.22;6261543;23;20018;-82
2023/07/25 17:46:28;;;;;;;;;;;;;;;26.83;65.66;99179.69;6261421;23;20026;-83
2023/07/25 17:49:21;;;;;;;12.93;5.07;;;;;;;26.83;65.13;99176.91;6261221;23;20334;-84
2023/07/25 17:52:15;;;;;;;9.23;3.95;;;;;;;26.85;65.40;99176.44;6261359;23;20358;-81
2023/07/25 17:55:11;;;;;;;9.98;3.90;;;;;;;26.80;64.95;99166.69;6260420;23;20023;-81
2023/07/25 17:58:03;;;;;;;13.48;3.78;;;;;;;26.76;65.27;99166.84;6259867;23;20018;-82
2023/07/25 18:00:57;;;;;;;6.93;3.80;;;;;;;26.75;64.64;99167.28;6254298;23;20469;-83
2023/07/25 18:03:47;;;;;;;;;;;;;;;26.68;64.19;99162.00;6259908;23;20066;-82
2023/07/25 18:06:39;;;;;;;5.60;3.35;;;;;;;26.61;65.49;99156.75;6260174;23;20327;-84
2023/07/25 18:09:26;;;;;;;;;;;;;;;26.61;67.17;99167.88;6261696;23;20018;-82
2023/07/25 18:12:21;;;;;;;10.75;4.18;;;;;;;26.57;67.34;99158.88;6251322;23;19912;-83
2023/07/25 18:15:15;;;;;;;15.52;3.70;;;;;;;26.56;66.99;99157.34;6260467;23;20039;-82
2023/07/25 18:18:03;;;;;;;;;;;;;;;26.53;66.42;99159.03;6262714;23;20022;-83
2023/07/25 18:20:57;;;;;;;6.05;3.30;;;;;;;26.52;67.75;99163.06;6254394;23;19907;-83
2023/07/25 18:23:49;;;;;;;;;;;;;;;26.52;67.82;99168.63;6240272;23;20501;-83
2023/07/25 18:26:43;;;;;;;8.10;3.80;;;;;;;26.49;67.47;99166.78;6262033;23;20330;-83
2023/07/25 18:29:35;;;;;;;11.20;3.90;;;;;;;26.47;67.77;99169.22;6262056;23;20071;-83
2023/07/25 18:32:30;;;;;;;9.02;3.75;;;;;;;26.47;67.67;99174.81;6261217;23;20019;-83
2023/07/25 18:35:22;;;;;;;;;;;;;;;26.47;67.69;99177.59;6260457;23;20015;-83
2023/07/25 18:38:15;;;;;;;5.60;3.53;;;;;;;26.47;67.99;99179.59;6260120;23;19907;-83
2023/07/25 18:41:09;;;;;;;10.02;3.80;;;;;;;26.46;67.18;99183.66;6260494;23;20022;-83
2023/07/25 18:44:01;;;;;;;;;;;;;;;26.45;67.25;99174.50;6261457;23;20042;-83
2023/07/25 18:46:56;;;;;;;14.20;4.13;;;;;;;26.46;68.76;99178.06;6261357;23;19911;-84
2023/07/25 18:49:48;;;;;;;10.57;3.70;;;;;;;26.43;68.80;99178.97;6259893;23;20018;-83
2023/07/25 18:52:40;;;;;;;10.30;4.18;;;;;;;26.39;69.43;99182.69;6261099;23;20473;-84
2023/07/25 18:55:34;;;;;;;9.68;4.70;;;;;;;26.37;69.63;99189.97;6260929;23;20019;-84
2023/07/25 18:58:27;;;;;;;;;;;;;;;26.30;70.76;99191.03;6261401;23;20019;-85
2023/07/25 19:01:21;;;;;;;9.73;4.57;;;;;;;26.29;71.26;99197.84;6255042;23;19908;-85
2023/07/25 19:04:13;;;;;;;9.88;4.43;;;;;;;26.28;71.40;99193.50;6240629;23;20065;-84
2023/07/25 19:07:04;;;;;;;6.28;4.22;;;;;;;26.27;71.33;99194.72;6240417;23;20354;-85
2023/07/25 19:09:59;;;;;;;12.02;5.05;;;;;;;26.24;71.46;99192.88;6259728;23;20022;-83
2023/07/25 19:12:48;;;;;;;8.90;5.07;;;;;;;26.24;71.67;99204.03;6260681;23;20030;-84
2023/07/25 19:15:43;;;;;;;6.30;4.72;;;;;;;26.24;71.86;99209.59;6260598;23;20018;-82
2023/07/25 19:18:35;;;;;;;;;;;;;;;26.23;71.87;99216.41;6262023;23;20031;-84
2023/07/25 19:21:30;;;;;;;11.98;5.10;;;;;;;26.20;72.33;99222.09;6259669;23;19907;-83
2023/07/25 19:24:24;;;;;;;9.48;5.32;;;;;;;26.17;72.75;99222.97;6260931;23;20022;-83
2023/07/25 19:27:19;;;;;;;9.23;4.68;;;;;;;26.15;73.04;99217.88;6257086;23;20019;-81
2023/07/25 19:30:12;;;;;;;12.88;5.18;;;;;;;26.08;72.94;99225.72;6258073;23;20022;-81
